Time,TemperatureF,DewpointF,PressureIn,WindDirection,WindDirectionDegrees,WindSpeedMPH,WindSpeedGustMPH,Humidity,HourlyPrecipIn,Conditions,Clouds,dailyrainin,SoftwareType,DateUTC
2013-04-23 00:02:00,54.0,48.0,30.01,NE,36,6.0,6.0,80,0.00,,,0.45,,2013-04-22 22:02:00,
2013-04-23 00:12:00,54.0,48.0,30.01,NE,36,6.0,6.0,80,0.00,,,0.45,,2013-04-22 22:12:00,
2013-04-23 00:22:00,54.0,48.0,30.02,NE,37,5.0,6.0,80,0.00,,,0.45,,2013-04-22 22:22:00,
2013-04-23 00:32:00,54.0,48.0,30.02,NE,38,3.0,5.0,80,0.00,,,0.45,,2013-04-22 22:32:00,
2013-04-23 00:41:00,54.0,48.0,30.02,NE,38,3.0,5.0,80,0.00,,,0.45,,2013-04-22 22:41:00,
2013-04-23 00:52:00,53.0,47.0,30.02,NE,35,3.0,6.0,80,0.00,,,0.45,,2013-04-22 22:52:00,
2013-04-23 01:02:00,54.0,48.0,30.02,NE,39,3.0,3.0,79,0.00,,,0.45,,2013-04-22 23:02:00,
2013-04-23 01:11:00,54.0,48.0,30.02,NE,39,3.0,3.0,79,0.00,,,0.45,,2013-04-22 23:11:00,
2013-04-23 01:21:00,54.0,48.0,30.02,NE,39,3.0,3.0,79,0.00,,,0.45,,2013-04-22 23:21:00,
2013-04-23 01:32:00,54.0,47.0,30.02,NE,39,3.0,4.0,78,0.00,,,0.45,,2013-04-22 23:32:00,
2013-04-23 01:42:00,54.0,47.0,30.02,NE,39,3.0,4.0,78,0.00,,,0.45,,2013-04-22 23:42:00,
2013-04-23 01:52:00,54.0,47.0,30.02,NE,39,3.0,4.0,78,0.00,,,0.45,,2013-04-22 23:52:00,
2013-04-23 02:01:00,53.0,47.0,30.02,NE,34,4.0,5.0,79,0.00,,,0.45,,2013-04-23 00:01:00,
2013-04-23 02:11:00,53.0,47.0,30.02,NE,34,4.0,5.0,79,0.00,,,0.45,,2013-04-23 00:11:00,
2013-04-23 02:21:00,54.0,48.0,30.02,ENE,61,3.0,4.0,79,0.00,,,0.45,,2013-04-23 00:21:00,
2013-04-23 02:31:00,55.0,48.0,30.02,ENE,70,3.0,3.0,77,0.00,,,0.45,,2013-04-23 00:31:00,
2013-04-23 02:41:00,55.0,48.0,30.02,ENE,70,3.0,3.0,77,0.00,,,0.45,,2013-04-23 00:41:00,
2013-04-23 02:51:00,55.0,48.0,30.02,ENE,69,3.0,6.0,76,0.00,,,0.45,,2013-04-23 00:51:00,
2013-04-23 03:01:00,55.0,48.0,30.02,ENE,68,2.0,3.0,76,0.00,,,0.45,,2013-04-23 01:01:00,
2013-04-23 03:11:00,55.0,48.0,30.02,ENE,68,2.0,3.0,76,0.00,,,0.45,,2013-04-23 01:11:00,
2013-04-23 03:21:00,55.0,48.0,30.02,ENE,68,2.0,3.0,76,0.00,,,0.45,,2013-04-23 01:21:00,
2013-04-23 03:31:00,55.0,47.0,30.01,ENE,69,3.0,6.0,74,0.00,,,0.45,,2013-04-23 01:31:00,
2013-04-23 03:41:00,55.0,47.0,30.01,ENE,69,3.0,6.0,74,0.00,,,0.45,,2013-04-23 01:41:00,
2013-04-23 03:52:00,55.0,47.0,30.01,ENE,69,3.0,6.0,74,0.00,,,0.45,,2013-04-23 01:52:00,
2013-04-23 04:01:00,55.0,47.0,30.02,ENE,69,4.0,6.0,75,0.00,,,0.45,,2013-04-23 02:01:00,
2013-04-23 04:12:00,55.0,47.0,30.02,ENE,69,4.0,6.0,75,0.00,,,0.45,,2013-04-23 02:12:00,
2013-04-23 04:21:00,55.0,47.0,30.02,ENE,69,3.0,4.0,75,0.00,,,0.45,,2013-04-23 02:21:00,
2013-04-23 04:32:00,55.0,48.0,30.03,ENE,69,3.0,4.0,76,0.00,,,0.45,,2013-04-23 02:32:00,
2013-04-23 04:42:00,55.0,48.0,30.03,ENE,69,3.0,4.0,76,0.00,,,0.45,,2013-04-23 02:42:00,
2013-04-23 04:52:00,54.0,47.0,30.02,ENE,69,3.0,4.0,77,0.00,,,0.45,,2013-04-23 02:52:00,
2013-04-23 05:01:00,55.0,48.0,30.03,ENE,63,2.0,3.0,76,0.00,,,0.45,,2013-04-23 03:01:00,
2013-04-23 05:11:00,55.0,48.0,30.03,ENE,63,2.0,3.0,76,0.00,,,0.45,,2013-04-23 03:11:00,
2013-04-23 05:21:00,55.0,48.0,30.03,ENE,63,3.0,3.0,76,0.00,,,0.45,,2013-04-23 03:21:00,
2013-04-23 05:33:00,55.0,47.0,30.03,ENE,74,7.0,7.0,75,0.00,,,0.45,,2013-04-23 03:33:00,
2013-04-23 05:43:00,55.0,47.0,30.03,ENE,74,7.0,7.0,75,0.00,,,0.45,,2013-04-23 03:43:00,
2013-04-23 05:52:00,55.0,47.0,30.03,ENE,76,4.0,6.0,74,0.00,,,0.45,,2013-04-23 03:52:00,
2013-04-23 06:03:00,55.0,47.0,30.03,ENE,74,3.0,7.0,74,0.00,,,0.45,,2013-04-23 04:03:00,
2013-04-23 06:12:00,55.0,47.0,30.03,ENE,74,3.0,7.0,74,0.00,,,0.45,,2013-04-23 04:12:00,
2013-04-23 06:22:00,55.0,47.0,30.03,ENE,69,6.0,7.0,74,0.00,,,0.44,,2013-04-23 04:22:00,
2013-04-23 06:32:00,55.0,47.0,30.03,ENE,74,6.0,6.0,73,0.00,,,0.34,,2013-04-23 04:32:00,
2013-04-23 06:43:00,55.0,47.0,30.03,ENE,74,6.0,6.0,73,0.00,,,0.34,,2013-04-23 04:43:00,
2013-04-23 06:52:00,55.0,47.0,30.03,ENE,74,6.0,6.0,73,0.00,,,0.34,,2013-04-23 04:52:00,
2013-04-23 07:02:00,55.0,47.0,30.05,ENE,65,3.0,6.0,73,0.00,,,0.24,,2013-04-23 05:02:00,
2013-04-23 07:12:00,55.0,47.0,30.05,ENE,65,3.0,6.0,73,0.00,,,0.24,,2013-04-23 05:12:00,
2013-04-23 07:22:00,55.0,47.0,30.05,ENE,65,3.0,6.0,73,0.00,,,0.24,,2013-04-23 05:22:00,
2013-04-23 07:32:00,57.0,47.0,30.06,ENE,76,4.0,6.0,70,0.00,,,0.18,,2013-04-23 05:32:00,
2013-04-23 07:42:00,57.0,47.0,30.06,ENE,76,4.0,6.0,70,0.00,,,0.18,,2013-04-23 05:42:00,
2013-04-23 07:52:00,57.0,47.0,30.06,ENE,76,4.0,6.0,70,0.00,,,0.18,,2013-04-23 05:52:00,
2013-04-23 08:01:00,58.0,47.0,30.07,ENE,78,3.0,4.0,67,0.00,,,0.18,,2013-04-23 06:01:00,
2013-04-23 08:12:00,58.0,47.0,30.07,ENE,78,3.0,4.0,67,0.00,,,0.18,,2013-04-23 06:12:00,
2013-04-23 08:21:00,58.0,47.0,30.07,ENE,78,3.0,4.0,67,0.00,,,0.18,,2013-04-23 06:21:00,
2013-04-23 08:32:00,59.0,47.0,30.08,East,97,3.0,7.0,65,0.00,,,0.17,,2013-04-23 06:32:00,
2013-04-23 08:41:00,59.0,47.0,30.08,East,97,3.0,7.0,65,0.00,,,0.17,,2013-04-23 06:41:00,
2013-04-23 08:52:00,59.0,47.0,30.08,East,97,3.0,7.0,65,0.00,,,0.17,,2013-04-23 06:52:00,
2013-04-23 09:02:00,60.0,47.0,30.08,ENE,68,3.0,6.0,63,0.00,,,0.17,,2013-04-23 07:02:00,
2013-04-23 09:11:00,60.0,47.0,30.08,ENE,68,3.0,6.0,63,0.00,,,0.17,,2013-04-23 07:11:00,
2013-04-23 09:21:00,61.0,47.0,30.09,ESE,110,3.0,6.0,60,0.00,,,0.17,,2013-04-23 07:21:00,
2013-04-23 09:32:00,61.0,49.0,30.10,South,186,5.0,7.0,64,0.00,,,0.17,,2013-04-23 07:32:00,
2013-04-23 09:42:00,61.0,49.0,30.10,South,186,5.0,7.0,64,0.00,,,0.17,,2013-04-23 07:42:00,
2013-04-23 09:52:00,60.0,48.0,30.10,SSE,167,3.0,5.0,64,0.00,,,0.17,,2013-04-23 07:52:00,
2013-04-23 10:01:00,61.0,48.0,30.10,SSE,168,4.0,10.0,62,0.00,,,0.17,,2013-04-23 08:01:00,
2013-04-23 10:11:00,61.0,48.0,30.10,SSE,168,4.0,10.0,62,0.00,,,0.17,,2013-04-23 08:11:00,
2013-04-23 10:21:00,62.0,49.0,30.10,South,169,5.0,7.0,63,0.00,,,0.17,,2013-04-23 08:21:00,
2013-04-23 10:31:00,62.0,47.0,30.11,SSE,153,6.0,9.0,59,0.00,,,0.06,,2013-04-23 08:31:00,
2013-04-23 10:42:00,62.0,47.0,30.11,SSE,153,6.0,9.0,59,0.00,,,0.06,,2013-04-23 08:42:00,
2013-04-23 10:52:00,62.0,47.0,30.11,SSE,153,6.0,9.0,59,0.00,,,0.06,,2013-04-23 08:52:00,
2013-04-23 11:01:00,62.0,47.0,30.11,SSE,153,6.0,9.0,59,0.00,,,0.06,,2013-04-23 09:01:00,
2013-04-23 11:33:00,64.0,43.0,30.12,SSW,195,3.0,8.0,46,0.00,,,0.00,,2013-04-23 09:33:00,
2013-04-23 11:43:00,64.0,43.0,30.12,SSW,195,3.0,8.0,46,0.00,,,0.00,,2013-04-23 09:43:00,
2013-04-23 11:53:00,64.0,43.0,30.12,SSW,195,3.0,8.0,46,0.00,,,0.00,,2013-04-23 09:53:00,
2013-04-23 12:02:00,63.0,43.0,30.13,SW,219,5.0,7.0,48,0.00,,,0.00,,2013-04-23 10:02:00,
2013-04-23 12:12:00,63.0,43.0,30.13,SW,219,5.0,7.0,48,0.00,,,0.00,,2013-04-23 10:12:00,
2013-04-23 12:22:00,64.0,43.0,30.13,SW,218,3.0,9.0,46,0.00,,,0.00,,2013-04-23 10:22:00,
2013-04-23 12:32:00,64.0,44.0,30.13,SSW,192,2.0,6.0,48,0.00,,,0.00,,2013-04-23 10:32:00,
2013-04-23 12:42:00,64.0,44.0,30.13,SSW,192,2.0,6.0,48,0.00,,,0.00,,2013-04-23 10:42:00,
2013-04-23 12:52:00,64.0,44.0,30.13,SW,220,5.0,7.0,48,0.00,,,0.00,,2013-04-23 10:52:00,
2013-04-23 13:02:00,65.0,45.0,30.14,SW,229,6.0,9.0,48,0.00,,,0.00,,2013-04-23 11:02:00,
2013-04-23 13:11:00,64.0,44.0,30.14,SSW,193,3.0,6.0,49,0.00,,,0.00,,2013-04-23 11:11:00,
2013-04-23 13:21:00,64.0,44.0,30.14,SSW,193,3.0,6.0,49,0.00,,,0.00,,2013-04-23 11:21:00,
2013-04-23 13:32:00,64.0,44.0,30.14,SSW,211,5.0,7.0,49,0.00,,,0.00,,2013-04-23 11:32:00,
2013-04-23 13:42:00,64.0,44.0,30.14,SSW,211,5.0,7.0,49,0.00,,,0.00,,2013-04-23 11:42:00,
2013-04-23 13:52:00,64.0,44.0,30.14,SSW,211,5.0,7.0,49,0.00,,,0.00,,2013-04-23 11:52:00,
2013-04-23 14:02:00,64.0,44.0,30.14,SSW,211,5.0,7.0,49,0.00,,,0.00,,2013-04-23 12:02:00,
2013-04-23 14:32:00,65.0,49.0,30.13,South,180,5.0,6.0,56,0.00,,,0.00,,2013-04-23 12:32:00,
2013-04-23 14:42:00,65.0,49.0,30.13,South,180,5.0,6.0,56,0.00,,,0.00,,2013-04-23 12:42:00,
2013-04-23 14:52:00,65.0,49.0,30.13,South,180,5.0,6.0,56,0.00,,,0.00,,2013-04-23 12:52:00,
2013-04-23 15:01:00,64.0,50.0,30.14,South,186,3.0,5.0,60,0.00,,,0.00,,2013-04-23 13:01:00,
2013-04-23 15:11:00,64.0,50.0,30.14,South,186,3.0,5.0,60,0.00,,,0.00,,2013-04-23 13:11:00,
2013-04-23 15:21:00,64.0,50.0,30.14,South,186,3.0,5.0,60,0.00,,,0.00,,2013-04-23 13:21:00,
2013-04-23 15:32:00,64.0,52.0,30.13,South,184,5.0,6.0,64,0.00,,,0.00,,2013-04-23 13:32:00,
2013-04-23 15:41:00,64.0,52.0,30.13,South,184,5.0,6.0,64,0.00,,,0.00,,2013-04-23 13:41:00,
2013-04-23 15:52:00,64.0,52.0,30.13,SSE,159,5.0,7.0,64,0.00,,,0.00,,2013-04-23 13:52:00,
2013-04-23 16:01:00,66.0,53.0,30.13,South,188,3.0,8.0,63,0.00,,,0.00,,2013-04-23 14:01:00,
2013-04-23 16:11:00,66.0,53.0,30.13,South,188,3.0,8.0,63,0.00,,,0.00,,2013-04-23 14:11:00,
2013-04-23 16:22:00,66.0,53.0,30.13,South,188,3.0,8.0,63,0.00,,,0.00,,2013-04-23 14:22:00,
2013-04-23 16:31:00,66.0,53.0,30.13,South,188,3.0,8.0,63,0.00,,,0.00,,2013-04-23 14:31:00,
2013-04-23 16:41:00,66.0,53.0,30.13,South,188,3.0,8.0,63,0.00,,,0.00,,2013-04-23 14:41:00,
2013-04-23 16:52:00,65.0,55.0,30.14,SSW,205,3.0,11.0,71,0.00,,,0.00,,2013-04-23 14:52:00,
2013-04-23 17:01:00,65.0,55.0,30.14,SSW,205,3.0,11.0,71,0.00,,,0.00,,2013-04-23 15:01:00,
2013-04-23 17:12:00,65.0,55.0,30.14,SSW,205,3.0,11.0,71,0.00,,,0.00,,2013-04-23 15:12:00,
2013-04-23 17:21:00,65.0,54.0,30.14,SSW,213,9.0,10.0,68,0.00,,,0.00,,2013-04-23 15:21:00,
2013-04-23 17:32:00,65.0,55.0,30.13,SW,231,5.0,9.0,69,0.00,,,0.00,,2013-04-23 15:32:00,
2013-04-23 17:42:00,65.0,55.0,30.13,SW,231,5.0,9.0,69,0.00,,,0.00,,2013-04-23 15:42:00,
2013-04-23 17:52:00,65.0,54.0,30.14,South,182,7.0,8.0,68,0.00,,,0.00,,2013-04-23 15:52:00,
2013-04-23 18:02:00,65.0,54.0,30.14,South,182,7.0,8.0,68,0.00,,,0.00,,2013-04-23 16:02:00,
2013-04-23 18:12:00,65.0,54.0,30.14,South,182,7.0,8.0,68,0.00,,,0.00,,2013-04-23 16:12:00,
2013-04-23 18:23:00,65.0,54.0,30.14,South,182,7.0,8.0,68,0.00,,,0.00,,2013-04-23 16:23:00,
2013-04-23 18:53:00,64.0,53.0,30.14,SW,230,3.0,5.0,67,0.00,,,0.00,,2013-04-23 16:53:00,
2013-04-23 19:02:00,64.0,53.0,30.14,WSW,238,0.0,3.0,67,0.00,,,0.00,,2013-04-23 17:02:00,
2013-04-23 19:11:00,64.0,53.0,30.14,WSW,238,0.0,3.0,67,0.00,,,0.00,,2013-04-23 17:11:00,
2013-04-23 19:22:00,64.0,53.0,30.14,WSW,238,0.0,3.0,67,0.00,,,0.00,,2013-04-23 17:22:00,
2013-04-23 19:32:00,64.0,53.0,30.14,WSW,239,0.0,3.0,68,0.00,,,0.00,,2013-04-23 17:32:00,
2013-04-23 19:42:00,64.0,53.0,30.14,WSW,239,0.0,3.0,68,0.00,,,0.00,,2013-04-23 17:42:00,
2013-04-23 19:53:00,64.0,53.0,30.14,WSW,239,0.0,3.0,68,0.00,,,0.00,,2013-04-23 17:53:00,
2013-04-23 20:01:00,64.0,53.0,30.14,WSW,239,0.0,3.0,68,0.00,,,0.00,,2013-04-23 18:01:00,
2013-04-23 20:22:00,63.0,53.0,30.16,WSW,242,2.0,3.0,69,0.00,,,0.00,,2013-04-23 18:22:00,
2013-04-23 20:32:00,63.0,53.0,30.16,WSW,242,2.0,3.0,69,0.00,,,0.00,,2013-04-23 18:32:00,
2013-04-23 20:42:00,63.0,53.0,30.16,WSW,242,2.0,3.0,69,0.00,,,0.00,,2013-04-23 18:42:00,
2013-04-23 20:52:00,63.0,53.0,30.17,WSW,242,0.0,0.0,69,0.00,,,0.00,,2013-04-23 18:52:00,
2013-04-23 21:02:00,63.0,53.0,30.17,WSW,242,0.0,0.0,69,0.00,,,0.00,,2013-04-23 19:02:00,
2013-04-23 21:11:00,63.0,53.0,30.17,WSW,242,0.0,0.0,69,0.00,,,0.00,,2013-04-23 19:11:00,
2013-04-23 21:21:00,62.0,54.0,30.18,NNE,26,3.0,6.0,75,0.00,,,0.00,,2013-04-23 19:21:00,
2013-04-23 21:32:00,61.0,54.0,30.19,NNE,27,7.0,9.0,78,0.00,,,0.00,,2013-04-23 19:32:00,
2013-04-23 21:42:00,61.0,54.0,30.19,NNE,27,7.0,9.0,78,0.00,,,0.00,,2013-04-23 19:42:00,
2013-04-23 21:51:00,61.0,54.0,30.19,NNE,27,7.0,9.0,78,0.00,,,0.00,,2013-04-23 19:51:00,
2013-04-23 22:01:00,62.0,55.0,30.19,NE,40,6.0,8.0,78,0.00,,,0.00,,2013-04-23 20:01:00,
2013-04-23 22:11:00,62.0,55.0,30.19,NE,40,6.0,8.0,78,0.00,,,0.00,,2013-04-23 20:11:00,
2013-04-23 22:21:00,62.0,55.0,30.19,NNE,28,8.0,8.0,78,0.00,,,0.00,,2013-04-23 20:21:00,
2013-04-23 22:31:00,62.0,55.0,30.19,NE,42,4.0,9.0,79,0.00,,,0.00,,2013-04-23 20:31:00,
2013-04-23 22:41:00,62.0,55.0,30.19,NE,42,4.0,9.0,79,0.00,,,0.00,,2013-04-23 20:41:00,
2013-04-23 22:51:00,61.0,54.0,30.19,NE,38,8.0,10.0,79,0.00,,,0.00,,2013-04-23 20:51:00,
2013-04-23 23:01:00,61.0,54.0,30.19,NE,47,6.0,9.0,78,0.00,,,0.00,,2013-04-23 21:01:00,
2013-04-23 23:11:00,61.0,54.0,30.19,NE,47,6.0,9.0,78,0.00,,,0.00,,2013-04-23 21:11:00,
2013-04-23 23:21:00,61.0,54.0,30.20,NE,38,3.0,7.0,77,0.00,,,0.00,,2013-04-23 21:21:00,
2013-04-23 23:32:00,63.0,54.0,30.20,ENE,65,4.0,4.0,72,0.00,,,0.00,,2013-04-23 21:32:00,
2013-04-23 23:43:00,63.0,54.0,30.20,ENE,65,4.0,4.0,72,0.00,,,0.00,,2013-04-23 21:43:00,
2013-04-23 23:52:00,63.0,53.0,30.20,ENE,66,4.0,4.0,70,0.00,,,0.00,,2013-04-23 21:52:00,